createdAt,value
2019-02-11T00:00:10.931Z,81.90
2019-02-11T00:02:39.139Z,81.90
2019-02-11T00:05:07.368Z,80.90
2019-02-11T00:07:35.625Z,80.60
2019-02-11T00:10:04.783Z,80.90
2019-02-11T00:12:33.013Z,81.20
2019-02-11T00:15:01.396Z,80.40
2019-02-11T00:17:29.616Z,79.30
2019-02-11T00:19:57.888Z,79.20
2019-02-11T00:22:26.105Z,79.40
2019-02-11T00:24:54.347Z,79.40
2019-02-11T00:27:22.936Z,79.60
2019-02-11T00:29:51.223Z,80.30
2019-02-11T00:32:19.439Z,81.00
2019-02-11T00:34:47.668Z,80.70
2019-02-11T00:37:15.905Z,80.70
2019-02-11T00:39:44.351Z,79.70
2019-02-11T00:42:12.572Z,79.50
2019-02-11T00:44:40.795Z,80.40
2019-02-11T00:47:09.003Z,80.60
2019-02-11T00:49:37.239Z,79.60
2019-02-11T00:52:05.448Z,79.00
2019-02-11T00:54:33.670Z,78.70
2019-02-11T00:57:02.192Z,78.50
2019-02-11T00:59:30.663Z,77.60
2019-02-11T01:01:58.914Z,77.90
2019-02-11T01:04:27.131Z,77.10
2019-02-11T01:06:55.665Z,75.90
2019-02-11T01:09:23.854Z,77.10
2019-02-11T01:11:52.095Z,79.10
2019-02-11T01:14:20.338Z,80.20
2019-02-11T01:16:48.573Z,79.00
2019-02-11T01:19:16.785Z,76.80
2019-02-11T01:21:45.024Z,78.70
2019-02-11T01:24:13.252Z,79.00
2019-02-11T01:26:41.476Z,79.20
2019-02-11T01:29:09.748Z,78.00
2019-02-11T01:31:38.063Z,77.30
2019-02-11T01:34:06.256Z,75.50
2019-02-11T01:36:34.481Z,75.80
2019-02-11T01:39:02.695Z,76.00
2019-02-11T01:41:30.940Z,76.50
2019-02-11T01:43:59.176Z,75.60
2019-02-11T01:46:27.752Z,76.90
2019-02-11T01:48:55.967Z,77.10
2019-02-11T01:51:24.196Z,77.00
2019-02-11T01:53:52.403Z,76.20
2019-02-11T01:56:20.655Z,76.50
2019-02-11T01:58:48.877Z,75.70
2019-02-11T02:01:17.091Z,76.00
2019-02-11T02:03:45.315Z,74.40
2019-02-11T02:06:13.552Z,75.10
2019-02-11T02:08:42.068Z,75.10
2019-02-11T02:11:10.270Z,75.10
2019-02-11T02:13:44.662Z,76.10
2019-02-11T02:16:08.475Z,75.50
2019-02-11T02:18:36.688Z,74.60
2019-02-11T02:21:04.919Z,74.90
2019-02-11T02:23:33.152Z,74.80
2019-02-11T02:26:01.391Z,74.90
2019-02-11T02:28:29.608Z,75.10
2019-02-11T02:30:58.090Z,74.80
2019-02-11T02:33:26.310Z,75.50
2019-02-11T02:35:54.542Z,75.80
2019-02-11T02:38:22.740Z,74.50
2019-02-11T02:40:50.981Z,74.20
2019-02-11T02:43:19.264Z,74.70
2019-02-11T02:45:47.489Z,75.70
2019-02-11T02:48:15.697Z,77.00
2019-02-11T02:50:43.923Z,76.20
2019-02-11T02:53:12.485Z,75.80
2019-02-11T02:55:40.738Z,76.70
2019-02-11T02:58:09.264Z,75.40
2019-02-11T03:00:37.665Z,74.50
2019-02-11T03:03:05.889Z,76.00
2019-02-11T03:05:34.450Z,75.10
2019-02-11T03:08:02.669Z,73.70
2019-02-11T03:10:30.900Z,74.40
2019-02-11T03:12:59.099Z,75.00
2019-02-11T03:15:27.340Z,74.60
2019-02-11T03:17:55.556Z,75.60
2019-02-11T03:20:23.789Z,74.00
2019-02-11T03:22:52.007Z,73.10
2019-02-11T03:25:20.229Z,73.90
2019-02-11T03:27:48.448Z,72.30
2019-02-11T03:30:16.683Z,73.00
2019-02-11T03:32:44.897Z,74.00
2019-02-11T03:35:13.124Z,73.30
2019-02-11T03:37:41.344Z,73.60
2019-02-11T03:40:10.065Z,73.60
2019-02-11T03:42:38.286Z,74.30
2019-02-11T03:45:10.180Z,75.00
2019-02-11T03:47:38.408Z,74.90
2019-02-11T03:50:09.059Z,76.20
2019-02-11T03:52:37.567Z,74.30
2019-02-11T03:55:06.527Z,73.80
2019-02-11T03:57:34.746Z,74.20
2019-02-11T04:00:03.054Z,73.30
2019-02-11T04:02:31.279Z,72.00
2019-02-11T04:04:59.495Z,72.90
2019-02-11T04:07:27.739Z,72.50
2019-02-11T04:09:55.939Z,71.90
2019-02-11T04:12:24.175Z,70.30
2019-02-11T04:14:52.389Z,70.20
2019-02-11T04:17:20.859Z,70.80
2019-02-11T04:19:49.076Z,70.60
2019-02-11T04:22:17.295Z,70.00
2019-02-11T04:24:45.532Z,68.60
2019-02-11T04:27:13.748Z,70.60
2019-02-11T04:29:41.976Z,71.00
2019-02-11T04:32:10.193Z,69.70
2019-02-11T04:34:38.432Z,68.70
2019-02-11T04:37:06.963Z,70.00
2019-02-11T04:39:35.200Z,69.40
2019-02-11T04:42:03.779Z,68.20
2019-02-11T04:44:33.911Z,68.60
2019-02-11T04:47:01.951Z,68.40
2019-02-11T04:49:30.193Z,69.40
2019-02-11T04:51:59.012Z,68.60
2019-02-11T04:54:27.429Z,68.30
2019-02-11T04:56:55.632Z,68.90
2019-02-11T04:59:23.865Z,68.10
2019-02-11T05:01:52.080Z,68.10
2019-02-11T05:04:20.321Z,67.30
2019-02-11T05:06:48.552Z,67.50
2019-02-11T05:09:16.796Z,67.80
2019-02-11T05:11:45.009Z,68.00
2019-02-11T05:14:13.248Z,68.30
2019-02-11T05:16:41.476Z,66.80
2019-02-11T05:19:09.712Z,66.60
2019-02-11T05:21:37.938Z,67.10
2019-02-11T05:24:06.174Z,66.90
2019-02-11T05:26:34.407Z,67.40
2019-02-11T05:29:02.641Z,67.40
2019-02-11T05:31:32.677Z,66.90
2019-02-11T05:34:00.809Z,66.00
2019-02-11T05:36:29.029Z,67.50
2019-02-11T05:38:57.285Z,67.70
2019-02-11T05:41:25.506Z,65.90
2019-02-11T05:43:53.730Z,66.70
2019-02-11T05:46:21.948Z,66.50
2019-02-11T05:48:50.199Z,65.80
2019-02-11T05:51:18.428Z,65.10
2019-02-11T05:53:46.904Z,64.10
2019-02-11T05:56:15.123Z,64.40
2019-02-11T05:58:43.747Z,64.00
2019-02-11T06:01:11.948Z,64.00
2019-02-11T06:03:40.470Z,65.30
2019-02-11T06:06:08.686Z,65.60
2019-02-11T06:08:37.274Z,64.40
2019-02-11T06:11:05.476Z,64.40
2019-02-11T06:13:33.715Z,64.70
2019-02-11T06:16:01.933Z,64.70
2019-02-11T06:18:30.155Z,64.30
2019-02-11T06:20:58.548Z,64.80
2019-02-11T06:23:26.808Z,63.60
2019-02-11T06:25:55.054Z,63.80
2019-02-11T06:28:23.268Z,63.00
2019-02-11T06:30:51.864Z,64.10
2019-02-11T06:33:20.072Z,64.20
2019-02-11T06:35:48.315Z,63.10
2019-02-11T06:38:16.529Z,62.00
2019-02-11T06:40:45.013Z,62.00
2019-02-11T06:43:13.229Z,63.70
2019-02-11T06:45:41.797Z,63.20
2019-02-11T06:48:10.284Z,62.10
2019-02-11T06:50:38.520Z,63.00
2019-02-11T06:53:06.972Z,63.60
2019-02-11T06:55:35.464Z,63.80
2019-02-11T06:58:03.960Z,63.40
2019-02-11T07:00:51.620Z,64.80
2019-02-11T07:03:19.836Z,63.00
2019-02-11T07:05:48.073Z,63.30
2019-02-11T07:08:16.279Z,63.30
2019-02-11T07:10:44.525Z,62.40
2019-02-11T07:13:12.741Z,63.60
2019-02-11T07:15:41.068Z,63.40
2019-02-11T07:18:09.281Z,64.20
2019-02-11T07:20:37.506Z,64.50
2019-02-11T07:23:05.995Z,64.00
2019-02-11T07:25:34.233Z,64.50
2019-02-11T07:28:02.460Z,64.40
2019-02-11T07:30:30.696Z,64.50
2019-02-11T07:32:58.914Z,65.20
2019-02-11T07:35:27.320Z,64.20
2019-02-11T07:37:55.542Z,64.00
2019-02-11T07:40:25.094Z,64.70
2019-02-11T07:43:07.587Z,65.20
2019-02-11T07:45:49.544Z,64.80
2019-02-11T07:48:17.756Z,65.20
2019-02-11T07:50:46.392Z,64.70
2019-02-11T07:53:14.593Z,65.10
2019-02-11T07:55:42.824Z,64.40
2019-02-11T07:58:11.042Z,64.80
2019-02-11T08:00:39.273Z,64.60
2019-02-11T08:03:07.491Z,64.60
2019-02-11T08:05:36.001Z,65.70
2019-02-11T08:08:04.214Z,65.80
2019-02-11T08:10:32.467Z,65.30
2019-02-11T08:13:00.679Z,65.70
2019-02-11T08:15:28.936Z,65.70
2019-02-11T08:17:58.245Z,65.70
2019-02-11T08:20:26.621Z,98.80
2019-02-11T08:22:54.865Z,94.00
2019-02-11T08:25:23.132Z,77.30
2019-02-11T08:27:51.758Z,76.30
2019-02-11T08:30:20.048Z,70.50
2019-02-11T08:32:48.283Z,78.50
2019-02-11T08:35:16.529Z,70.10
2019-02-11T08:37:44.743Z,54.90
2019-02-11T08:40:12.988Z,56.40
2019-02-11T08:42:41.279Z,54.20
2019-02-11T08:45:10.251Z,56.20
2019-02-11T08:47:38.760Z,57.30
2019-02-11T08:50:08.428Z,59.60
2019-02-11T08:52:36.720Z,60.20
2019-02-11T08:55:07.186Z,61.70
2019-02-11T08:57:35.703Z,61.10
2019-02-11T09:00:06.602Z,62.00
2019-02-11T09:02:34.830Z,63.20
2019-02-11T09:05:03.060Z,61.40
2019-02-11T09:07:31.643Z,62.20
2019-02-11T09:10:00.251Z,61.20
2019-02-11T09:12:28.536Z,61.80
2019-02-11T09:14:56.832Z,61.50
2019-02-11T09:17:25.048Z,61.10
2019-02-11T09:19:53.279Z,61.40
2019-02-11T09:22:21.508Z,63.00
2019-02-11T09:24:49.745Z,63.10
2019-02-11T09:27:17.964Z,62.90
2019-02-11T09:29:46.191Z,63.10
2019-02-11T09:32:14.435Z,62.30
2019-02-11T09:34:42.660Z,62.70
2019-02-11T09:37:12.008Z,63.00
2019-02-11T09:39:40.237Z,63.10
2019-02-11T09:42:08.448Z,62.40
2019-02-11T09:44:36.676Z,60.30
2019-02-11T09:47:04.922Z,61.40
2019-02-11T09:49:33.211Z,60.40
2019-02-11T09:52:01.707Z,61.10
2019-02-11T09:54:30.244Z,58.80
2019-02-11T09:56:58.456Z,60.20
2019-02-11T09:59:26.683Z,58.50
2019-02-11T10:01:54.909Z,60.10
2019-02-11T10:04:23.697Z,60.10
2019-02-11T10:06:52.045Z,60.30
2019-02-11T10:09:20.259Z,59.60
2019-02-11T10:11:48.488Z,58.00
2019-02-11T10:14:16.711Z,58.10
2019-02-11T10:16:44.939Z,58.00
2019-02-11T10:19:13.173Z,57.90
2019-02-11T10:21:41.503Z,58.00
2019-02-11T10:24:10.019Z,58.30
2019-02-11T10:26:38.248Z,58.10
2019-02-11T10:29:06.805Z,56.90
2019-02-11T10:31:35.023Z,56.50
2019-02-11T10:34:03.496Z,56.20
2019-02-11T10:36:31.725Z,56.00
2019-02-11T10:38:59.938Z,55.50
2019-02-11T10:41:28.168Z,56.80
2019-02-11T10:43:56.385Z,56.00
2019-02-11T10:46:24.948Z,55.70
2019-02-11T10:48:53.168Z,56.00
2019-02-11T10:51:21.725Z,56.40
2019-02-11T10:53:49.965Z,56.70
2019-02-11T10:56:18.270Z,56.30
2019-02-11T10:58:46.487Z,56.30
2019-02-11T11:01:14.712Z,56.20
2019-02-11T11:03:42.919Z,57.20
2019-02-11T11:06:11.317Z,55.50
2019-02-11T11:08:39.544Z,56.00
2019-02-11T11:11:07.789Z,56.90
2019-02-11T11:13:36.016Z,57.70
2019-02-11T11:16:04.233Z,57.20
2019-02-11T11:18:32.482Z,57.60
2019-02-11T11:21:00.716Z,56.90
2019-02-11T11:23:28.968Z,57.60
2019-02-11T11:25:57.187Z,57.60
2019-02-11T11:28:25.404Z,57.40
2019-02-11T11:30:53.932Z,58.00
2019-02-11T11:33:22.163Z,58.20
2019-02-11T11:35:50.420Z,58.20
2019-02-11T11:38:18.623Z,57.20
2019-02-11T11:40:46.900Z,56.90
2019-02-11T11:43:15.132Z,56.90
2019-02-11T11:45:43.361Z,56.90
2019-02-11T11:48:11.576Z,57.70
2019-02-11T11:50:39.804Z,57.50
2019-02-11T11:53:08.043Z,58.30
2019-02-11T11:55:36.285Z,57.40
2019-02-11T11:58:04.498Z,58.00
2019-02-11T12:00:33.783Z,58.30
2019-02-11T12:03:04.833Z,58.00
2019-02-11T12:05:31.989Z,57.70
2019-02-11T12:08:00.242Z,57.30
2019-02-11T12:10:28.542Z,57.60
2019-02-11T12:12:57.102Z,58.50
2019-02-11T12:15:27.203Z,58.90
2019-02-11T12:17:55.732Z,58.10
2019-02-11T12:20:23.957Z,57.80
2019-02-11T12:22:52.195Z,58.20
2019-02-11T12:25:20.399Z,57.20
2019-02-11T12:27:48.634Z,57.30
2019-02-11T12:30:22.676Z,57.80
2019-02-11T12:32:54.311Z,58.00
2019-02-11T12:35:21.183Z,58.30
2019-02-11T12:37:49.434Z,59.50
2019-02-11T12:40:17.649Z,61.10
2019-02-11T12:42:45.893Z,62.60
2019-02-11T12:45:22.678Z,62.60
2019-02-11T12:47:50.938Z,61.90
2019-02-11T12:50:19.677Z,62.30
2019-02-11T12:52:47.897Z,63.10
2019-02-11T12:55:17.721Z,62.90
2019-02-11T12:57:46.306Z,62.10
2019-02-11T13:00:20.271Z,61.20
2019-02-11T13:02:48.546Z,60.30
2019-02-11T13:05:21.408Z,59.20
2019-02-11T13:07:46.927Z,59.30
2019-02-11T13:10:17.770Z,58.90
2019-02-11T13:12:46.088Z,60.20
2019-02-11T13:15:41.762Z,59.80
2019-02-11T13:17:48.971Z,60.20
2019-02-11T13:20:20.223Z,57.80
2019-02-11T13:22:48.699Z,54.80
2019-02-11T13:25:17.914Z,55.00
2019-02-11T13:27:46.424Z,54.40
2019-02-11T13:30:16.764Z,54.80
2019-02-11T13:32:45.019Z,55.40
2019-02-11T13:35:13.280Z,54.90
2019-02-11T13:37:41.496Z,55.10
2019-02-11T13:40:10.880Z,56.00
2019-02-11T13:42:39.128Z,56.90
2019-02-11T13:45:12.299Z,55.00
2019-02-11T13:47:53.504Z,54.20
2019-02-11T13:50:13.212Z,55.40
2019-02-11T13:52:41.490Z,54.20
2019-02-11T13:55:09.842Z,54.40
2019-02-11T13:57:38.092Z,52.50
2019-02-11T14:00:12.548Z,52.90
2019-02-11T14:02:57.670Z,52.80
2019-02-11T14:05:26.738Z,53.20
2019-02-11T14:07:55.058Z,53.70
2019-02-11T14:10:23.293Z,53.90
2019-02-11T14:12:51.704Z,52.50
2019-02-11T14:15:21.147Z,52.50
2019-02-11T14:17:49.993Z,52.80
2019-02-11T14:20:20.244Z,52.70
2019-02-11T14:22:48.511Z,53.50
2019-02-11T14:25:16.790Z,53.20
2019-02-11T14:27:45.071Z,53.20
2019-02-11T14:30:15.979Z,53.80
2019-02-11T14:32:44.235Z,53.90
2019-02-11T14:35:12.465Z,54.10
2019-02-11T14:37:40.707Z,54.10
2019-02-11T14:40:10.673Z,53.50
2019-02-11T14:42:38.919Z,53.80
2019-02-11T14:45:15.654Z,53.90
2019-02-11T14:47:44.796Z,54.70
2019-02-11T14:50:13.240Z,55.40
2019-02-11T14:52:41.479Z,54.90
2019-02-11T14:55:10.543Z,55.30
2019-02-11T14:57:38.803Z,55.10
2019-02-11T15:00:18.272Z,55.10
2019-02-11T15:02:46.495Z,55.60
2019-02-11T15:05:14.892Z,55.60
2019-02-11T15:07:43.263Z,56.40
2019-02-11T15:10:12.642Z,56.00
2019-02-11T15:12:42.742Z,55.60
2019-02-11T15:15:12.431Z,56.70
2019-02-11T15:17:42.602Z,55.80
2019-02-11T15:20:12.541Z,55.70
2019-02-11T15:22:40.807Z,56.10
2019-02-11T15:25:11.910Z,56.60
2019-02-11T15:27:39.708Z,56.00
2019-02-11T15:30:13.275Z,55.90
2019-02-11T15:32:41.533Z,54.90
2019-02-11T15:35:09.750Z,54.60
2019-02-11T15:37:37.992Z,55.20
2019-02-11T15:40:12.299Z,55.70
2019-02-11T15:42:40.620Z,56.40
2019-02-11T15:45:11.380Z,56.30
2019-02-11T15:47:39.670Z,56.60
2019-02-11T15:50:10.969Z,56.40
2019-02-11T15:52:39.284Z,56.60
2019-02-11T15:55:13.312Z,56.20
2019-02-11T15:57:41.592Z,56.40
2019-02-11T16:00:18.060Z,56.70
2019-02-11T16:02:46.321Z,56.60
2019-02-11T16:05:16.522Z,57.10
2019-02-11T16:07:44.782Z,57.00
2019-02-11T16:10:20.159Z,57.80
2019-02-11T16:12:48.583Z,58.00
2019-02-11T16:15:16.804Z,71.40
2019-02-11T16:17:45.060Z,57.90
2019-02-11T16:20:14.743Z,57.30
2019-02-11T16:22:43.269Z,57.20
2019-02-11T16:25:14.904Z,57.70
2019-02-11T16:27:43.501Z,58.40
2019-02-11T16:30:14.240Z,58.40
2019-02-11T16:32:42.496Z,58.20
2019-02-11T16:35:12.220Z,58.40
2019-02-11T16:37:40.491Z,58.20
2019-02-11T16:40:11.448Z,58.10
2019-02-11T16:42:39.796Z,58.60
2019-02-11T16:45:10.070Z,58.50
2019-02-11T16:47:38.321Z,58.60
2019-02-11T16:50:11.264Z,57.80
2019-02-11T16:52:39.785Z,57.60
2019-02-11T16:55:11.886Z,58.10
2019-02-11T16:57:40.143Z,58.20
2019-02-11T17:00:11.552Z,58.40
2019-02-11T17:02:39.807Z,58.60
2019-02-11T17:05:10.132Z,59.00
2019-02-11T17:07:42.042Z,58.80
2019-02-11T17:10:10.264Z,58.80
2019-02-11T17:12:38.661Z,59.00
2019-02-11T17:15:13.049Z,59.60
2019-02-11T17:17:41.311Z,59.00
2019-02-11T17:20:11.370Z,59.60
2019-02-11T17:22:39.617Z,59.60
2019-02-11T17:25:09.675Z,59.80
2019-02-11T17:27:37.980Z,60.30
2019-02-11T17:30:14.989Z,59.90
2019-02-11T17:32:43.546Z,60.10
2019-02-11T17:35:11.783Z,60.10
2019-02-11T17:37:40.029Z,60.90
2019-02-11T17:40:11.812Z,59.90
2019-02-11T17:42:40.220Z,59.60
2019-02-11T17:45:19.496Z,60.10
2019-02-11T17:47:47.808Z,59.70
2019-02-11T17:50:16.310Z,59.90
2019-02-11T17:52:44.564Z,60.30
2019-02-11T17:55:14.017Z,60.80
2019-02-11T17:57:42.260Z,61.50
2019-02-11T18:00:23.669Z,61.90
2019-02-11T18:02:51.937Z,62.90
2019-02-11T18:05:20.136Z,62.20
2019-02-11T18:07:48.403Z,63.20
2019-02-11T18:10:17.085Z,63.20
2019-02-11T18:12:45.304Z,64.00
2019-02-11T18:15:13.737Z,64.10
2019-02-11T18:17:41.966Z,63.30
2019-02-11T18:20:10.550Z,62.60
2019-02-11T18:22:38.740Z,63.10
2019-02-11T18:25:08.531Z,62.70
2019-02-11T18:27:36.755Z,63.50
2019-02-11T18:30:09.076Z,63.50
2019-02-11T18:32:37.289Z,63.90
2019-02-11T18:35:09.065Z,63.80
2019-02-11T18:37:37.281Z,99.90
2019-02-11T18:40:11.931Z,85.10
2019-02-11T18:42:40.433Z,62.00
2019-02-11T18:45:11.193Z,59.50
2019-02-11T18:47:40.664Z,60.00
2019-02-11T18:50:13.261Z,60.90
2019-02-11T18:52:41.585Z,61.20
2019-02-11T18:55:14.240Z,61.80
2019-02-11T18:57:42.506Z,62.10
2019-02-11T19:00:16.519Z,62.90
2019-02-11T19:02:44.925Z,63.00
2019-02-11T19:05:13.384Z,63.30
2019-02-11T19:07:41.644Z,64.10
2019-02-11T19:10:12.560Z,63.80
2019-02-11T19:12:40.818Z,64.20
2019-02-11T19:15:14.061Z,64.20
2019-02-11T19:17:42.311Z,64.00
2019-02-11T19:20:12.590Z,64.00
2019-02-11T19:22:40.935Z,64.10
2019-02-11T19:25:10.548Z,64.50
2019-02-11T19:27:39.011Z,63.50
2019-02-11T19:30:16.060Z,63.70
2019-02-11T19:32:44.793Z,64.40
2019-02-11T19:35:13.034Z,64.70
2019-02-11T19:37:41.581Z,65.70
2019-02-11T19:40:12.220Z,64.40
2019-02-11T19:42:40.487Z,65.70
2019-02-11T19:45:19.205Z,65.10
2019-02-11T19:47:47.492Z,64.80
2019-02-11T19:50:16.932Z,65.10
2019-02-11T19:52:45.260Z,65.80
2019-02-11T19:55:14.818Z,66.00
2019-02-11T19:57:43.080Z,65.90
2019-02-11T20:00:21.299Z,65.50
2019-02-11T20:02:50.366Z,65.40
2019-02-11T20:05:19.070Z,65.30
2019-02-11T20:07:47.667Z,65.30
2019-02-11T20:10:18.592Z,65.40
2019-02-11T20:12:46.853Z,65.60
2019-02-11T20:15:17.962Z,65.30
2019-02-11T20:17:45.535Z,64.60
2019-02-11T20:20:19.317Z,64.60
2019-02-11T20:23:07.024Z,64.70
2019-02-11T20:25:35.235Z,64.90
2019-02-11T20:28:03.510Z,64.50
2019-02-11T20:30:32.336Z,64.70
2019-02-11T20:33:00.600Z,64.20
2019-02-11T20:35:28.836Z,64.40
2019-02-11T20:37:58.810Z,64.20
2019-02-11T20:40:31.396Z,64.00
2019-02-11T20:42:59.654Z,64.10
2019-02-11T20:45:28.921Z,64.30
2019-02-11T20:47:57.164Z,65.80
2019-02-11T20:50:25.659Z,65.00
2019-02-11T20:52:54.047Z,65.50
2019-02-11T20:55:22.272Z,66.20
2019-02-11T20:57:53.266Z,66.00
2019-02-11T21:00:23.516Z,66.30
2019-02-11T21:02:51.769Z,66.90
2019-02-11T21:05:19.990Z,68.20
2019-02-11T21:07:48.488Z,68.60
2019-02-11T21:10:22.379Z,69.80
2019-02-11T21:12:50.628Z,69.50
2019-02-11T21:15:18.840Z,70.30
2019-02-11T21:17:47.092Z,70.00
2019-02-11T21:20:20.814Z,70.10
2019-02-11T21:22:49.220Z,70.10
2019-02-11T21:25:17.435Z,69.40
2019-02-11T21:27:46.165Z,67.80
2019-02-11T21:30:15.368Z,66.40
2019-02-11T21:32:43.586Z,67.00
2019-02-11T21:35:12.887Z,66.90
2019-02-11T21:37:41.100Z,67.30
2019-02-11T21:40:09.536Z,67.50
2019-02-11T21:42:37.759Z,65.60
2019-02-11T21:45:08.865Z,67.10
2019-02-11T21:47:37.208Z,66.10
2019-02-11T21:50:08.768Z,65.10
2019-02-11T21:52:36.985Z,64.90
2019-02-11T21:55:08.655Z,64.50
2019-02-11T21:57:37.208Z,64.70
2019-02-11T22:00:08.711Z,64.40
2019-02-11T22:02:36.928Z,64.90
2019-02-11T22:05:06.216Z,65.10
2019-02-11T22:07:34.427Z,65.70
2019-02-11T22:10:02.845Z,67.10
2019-02-11T22:12:31.060Z,68.50
2019-02-11T22:14:59.304Z,68.80
2019-02-11T22:17:27.543Z,68.50
2019-02-11T22:19:56.081Z,68.50
2019-02-11T22:22:24.321Z,69.00
2019-02-11T22:24:52.896Z,69.10
2019-02-11T22:27:21.116Z,68.80
2019-02-11T22:29:49.344Z,69.60
2019-02-11T22:32:17.561Z,69.50
2019-02-11T22:34:45.807Z,70.00
2019-02-11T22:37:14.027Z,70.60
2019-02-11T22:39:42.251Z,70.30
2019-02-11T22:42:10.475Z,70.60
2019-02-11T22:44:38.748Z,70.40
2019-02-11T22:47:06.971Z,70.00
2019-02-11T22:49:35.191Z,69.90
2019-02-11T22:52:03.418Z,69.20
2019-02-11T22:54:31.961Z,69.80
2019-02-11T22:57:00.172Z,70.10
2019-02-11T22:59:28.396Z,70.10
2019-02-11T23:01:56.617Z,69.70
2019-02-11T23:04:24.831Z,69.60
2019-02-11T23:06:53.052Z,69.60
2019-02-11T23:09:21.288Z,69.80
2019-02-11T23:11:49.501Z,69.90
2019-02-11T23:14:17.728Z,69.70
2019-02-11T23:16:46.253Z,70.10
2019-02-11T23:19:14.539Z,69.50
2019-02-11T23:21:42.848Z,69.70
2019-02-11T23:24:11.068Z,69.40
2019-02-11T23:26:39.329Z,69.00
2019-02-11T23:29:07.552Z,69.10
2019-02-11T23:31:35.770Z,68.80
2019-02-11T23:34:03.999Z,68.20
2019-02-11T23:36:32.219Z,68.80
2019-02-11T23:39:00.448Z,68.40
2019-02-11T23:41:28.666Z,68.40
2019-02-11T23:43:56.892Z,68.90
2019-02-11T23:46:25.109Z,68.80
2019-02-11T23:48:53.596Z,68.80
2019-02-11T23:51:21.833Z,68.80
2019-02-11T23:53:50.045Z,68.70
2019-02-11T23:56:18.567Z,68.60
2019-02-11T23:58:47.065Z,68.10
